Time;durP1;ratioP1;P1;durP2;ratioP2;P2;SDS_P1;SDS_P2;PMS_P1;PMS_P2;Temp;Humidity;BMP_temperature;BMP_pressure;BME280_temperature;BME280_humidity;BME280_pressure;Samples;Min_cycle;Max_cycle;Signal;HPM_P1;HPM_P2
2021/07/22 00:00:21;;;;;;;6.30;4.60;;;;;;;14.70;75.56;100924.28;92754;1210;67860;-60
2021/07/22 00:02:49;;;;;;;8.10;4.70;;;;;;;14.68;75.33;100930.96;92769;1212;68377;-58
2021/07/22 00:16:00;;;;;;;9.30;4.90;;;;;;;14.60;75.72;100940.14;92449;1216;68262;-58
2021/07/22 00:18:11;;;;;;;7.70;5.40;;;;;;;14.61;75.66;100930.11;92596;1212;68178;-58
2021/07/22 00:20:19;;;;;;;5.80;4.60;;;;;;;14.56;76.06;100936.13;92640;1213;86580;-58
2021/07/22 00:22:27;;;;;;;5.80;4.80;;;;;;;14.56;75.93;100938.85;92717;1213;74140;-58
2021/07/22 00:24:37;;;;;;;7.00;4.40;;;;;;;14.56;76.01;100935.29;92711;1214;81799;-59
2021/07/22 00:26:44;;;;;;;6.60;4.60;;;;;;;14.52;76.20;100934.03;92681;1208;67025;-59
2021/07/22 00:28:55;;;;;;;7.80;5.10;;;;;;;14.48;76.11;100936.30;92707;1215;70112;-59
2021/07/22 00:31:03;;;;;;;9.20;4.70;;;;;;;14.49;76.26;100939.87;92677;1213;87098;-59
2021/07/22 00:33:14;;;;;;;8.00;4.80;;;;;;;14.47;76.41;100936.52;92690;1213;74545;-59
2021/07/22 00:35:21;;;;;;;6.50;4.50;;;;;;;14.45;76.23;100939.42;92671;1219;81946;-59
2021/07/22 00:37:29;;;;;;;6.30;4.50;;;;;;;14.42;76.24;100937.10;92685;1213;65670;-59
2021/07/22 00:39:37;;;;;;;9.00;5.10;;;;;;;14.39;76.43;100942.97;92719;1214;69809;-58
2021/07/22 00:41:48;;;;;;;8.60;4.80;;;;;;;14.37;76.33;100947.75;92695;1212;86340;-58
2021/07/22 00:43:55;;;;;;;8.90;4.90;;;;;;;14.37;76.58;100945.03;92701;1213;75429;-58
2021/07/22 00:46:03;;;;;;;7.20;4.70;;;;;;;14.37;76.62;100944.18;92667;1208;81460;-58
2021/07/22 00:48:11;;;;;;;7.20;5.00;;;;;;;14.35;76.60;100947.12;92713;1208;68686;-58
2021/07/22 00:50:18;;;;;;;5.70;4.50;;;;;;;14.33;76.59;100946.48;92700;1212;68262;-58
2021/07/22 00:52:26;;;;;;;6.60;4.80;;;;;;;14.31;76.92;100948.51;92692;1213;86153;-58
2021/07/22 00:54:34;;;;;;;6.30;4.30;;;;;;;14.25;76.89;100952.05;92729;1210;75599;-59
2021/07/22 00:56:41;;;;;;;6.50;5.20;;;;;;;14.20;76.96;100946.38;92676;1213;79951;-60
2021/07/22 00:58:53;;;;;;;6.50;4.80;;;;;;;14.15;76.99;100951.55;92671;1213;68135;-60
2021/07/22 01:01:01;;;;;;;6.20;4.10;;;;;;;14.14;77.07;100942.58;92684;1213;68060;-58
2021/07/22 01:03:08;;;;;;;6.30;4.90;;;;;;;14.14;76.99;100950.73;92696;1213;85836;-58
2021/07/22 01:05:16;;;;;;;8.00;4.80;;;;;;;14.17;77.03;100949.49;92681;1213;74572;-58
2021/07/22 01:07:24;;;;;;;7.00;5.00;;;;;;;14.14;77.08;100949.89;92679;1213;80391;-58
2021/07/22 01:09:31;;;;;;;6.50;4.80;;;;;;;14.11;77.23;100948.41;92694;1213;67530;-58
2021/07/22 01:11:39;;;;;;;7.50;4.70;;;;;;;14.09;77.00;100946.93;92728;1213;69040;-60
2021/07/22 01:13:46;;;;;;;7.50;4.60;;;;;;;14.05;76.90;100943.77;92698;1219;86764;-60
2021/07/22 01:15:54;;;;;;;7.90;5.30;;;;;;;14.03;77.15;100947.72;92725;1213;74017;-58
2021/07/22 01:18:02;;;;;;;6.70;4.40;;;;;;;14.06;77.38;100944.61;92692;1214;80847;-58
2021/07/22 01:20:17;;;;;;;8.60;4.60;;;;;;;14.01;77.32;100947.05;92664;1213;67419;-60
2021/07/22 01:22:25;;;;;;;8.30;4.60;;;;;;;13.99;77.41;100946.42;92722;1213;68985;-59
2021/07/22 01:24:33;;;;;;;6.30;5.10;;;;;;;14.01;77.42;100941.63;92681;1213;86217;-59
2021/07/22 01:26:40;;;;;;;8.50;4.70;;;;;;;13.99;77.52;100940.98;92728;1213;74126;-59
2021/07/22 01:28:48;;;;;;;7.60;5.20;;;;;;;13.98;77.52;100944.77;92703;1213;81995;-58
2021/07/22 01:30:59;;;;;;;8.50;5.10;;;;;;;13.99;77.58;100947.27;92689;1213;66365;-58
2021/07/22 01:33:07;;;;;;;7.00;5.00;;;;;;;14.00;77.46;100945.39;92733;1213;69419;-58
2021/07/22 01:35:16;;;;;;;8.30;4.90;;;;;;;13.97;77.53;100948.51;92728;1213;87623;-58
2021/07/22 01:37:23;;;;;;;7.10;4.90;;;;;;;13.95;77.37;100950.59;92705;1213;75113;-58
2021/07/22 01:39:33;;;;;;;6.00;4.80;;;;;;;13.91;77.67;100938.42;92698;1203;81205;-58
2021/07/22 01:41:43;;;;;;;6.30;4.60;;;;;;;13.91;77.67;100947.42;92665;1213;66923;-58
2021/07/22 01:43:54;;;;;;;7.90;4.70;;;;;;;13.90;77.78;100948.44;92705;1213;69425;-58
2021/07/22 01:46:01;;;;;;;8.10;5.00;;;;;;;13.89;77.83;100948.66;92705;1213;85577;-60
2021/07/22 01:48:12;;;;;;;7.50;5.20;;;;;;;13.85;77.75;100944.64;92690;1213;73908;-58
2021/07/22 01:50:19;;;;;;;7.90;4.60;;;;;;;13.85;77.66;100950.92;92679;1213;81229;-58
2021/07/22 01:52:27;;;;;;;6.50;5.30;;;;;;;13.84;77.83;100946.55;92647;1213;68386;-58
2021/07/22 01:54:35;;;;;;;8.10;4.90;;;;;;;13.79;77.80;100948.98;92727;1213;67973;-59
2021/07/22 01:56:43;;;;;;;6.70;4.70;;;;;;;13.77;77.84;100944.78;92693;1213;86215;-59
2021/07/22 01:58:50;;;;;;;6.10;4.80;;;;;;;13.73;77.94;100955.22;92725;1205;75212;-59
2021/07/22 02:00:58;;;;;;;6.10;4.60;;;;;;;13.69;78.00;100951.20;92707;1213;81503;-59
2021/07/22 02:03:06;;;;;;;8.10;4.90;;;;;;;13.68;78.01;100948.70;92709;1213;68907;-59
2021/07/22 02:05:14;;;;;;;7.00;4.90;;;;;;;13.69;77.97;100956.64;92674;1212;67870;-58
2021/07/22 02:07:22;;;;;;;5.90;5.20;;;;;;;13.71;78.02;100949.13;92691;1213;85868;-58
2021/07/22 02:09:30;;;;;;;8.00;5.20;;;;;;;13.68;78.01;100948.70;92705;1213;74524;-58
2021/07/22 02:11:38;;;;;;;6.00;5.00;;;;;;;13.66;78.25;100954.31;92675;1213;80202;-58
2021/07/22 02:13:45;;;;;;;6.40;4.50;;;;;;;13.65;78.24;100954.52;92698;1203;68870;-58
2021/07/22 02:15:56;;;;;;;7.10;4.60;;;;;;;13.65;77.98;100952.66;92681;1213;69738;-58
2021/07/22 02:18:04;;;;;;;6.70;4.70;;;;;;;13.63;78.28;100954.70;92687;1213;85656;-58
2021/07/22 02:20:13;;;;;;;8.80;4.90;;;;;;;13.64;78.37;100953.67;92690;1212;73648;-58
2021/07/22 02:22:21;;;;;;;9.00;4.80;;;;;;;13.64;78.27;100947.40;92682;1213;80589;-58
2021/07/22 02:24:31;;;;;;;11.00;4.90;;;;;;;13.65;78.37;100954.52;92693;1214;66607;-58
2021/07/22 02:26:39;;;;;;;8.10;5.40;;;;;;;13.63;78.42;100949.27;92664;1213;68924;-59
2021/07/22 02:28:47;;;;;;;7.70;5.20;;;;;;;13.60;78.47;100955.94;92661;1213;86915;-59
2021/07/22 02:30:54;;;;;;;7.20;4.80;;;;;;;13.60;78.44;100958.64;92700;1212;75392;-59
2021/07/22 02:33:02;;;;;;;8.00;4.80;;;;;;;13.62;78.55;100963.05;92665;1213;81288;-59
2021/07/22 02:35:11;;;;;;;7.30;4.80;;;;;;;13.63;78.54;100964.71;92669;1213;66409;-58
2021/07/22 02:37:21;;;;;;;6.70;4.60;;;;;;;13.64;78.60;100960.97;92697;1219;67954;-58
2021/07/22 02:39:29;;;;;;;6.70;5.20;;;;;;;13.59;78.56;100959.70;92681;1213;85589;-58
2021/07/22 02:41:37;;;;;;;8.80;5.20;;;;;;;13.61;78.68;100959.49;92725;1219;75651;-58
2021/07/22 02:43:45;;;;;;;6.90;4.80;;;;;;;13.65;78.72;100954.52;92672;1213;80349;-58
2021/07/22 02:45:52;;;;;;;6.50;4.90;;;;;;;13.67;78.86;100964.14;92695;1219;66504;-58
2021/07/22 02:48:00;;;;;;;7.20;4.90;;;;;;;13.68;78.77;100965.80;92695;1213;68513;-58
2021/07/22 02:50:11;;;;;;;9.00;5.50;;;;;;;13.70;78.69;100962.91;92706;1215;85669;-59
2021/07/22 02:52:19;;;;;;;9.30;5.00;;;;;;;13.71;78.96;100962.70;92687;1213;75115;-59
2021/07/22 02:54:26;;;;;;;6.30;4.60;;;;;;;13.75;78.84;100960.45;92677;1219;81478;-59
2021/07/22 02:56:34;;;;;;;7.60;5.20;;;;;;;13.76;79.02;100960.23;92690;1203;65431;-58
2021/07/22 02:58:41;;;;;;;6.60;5.30;;;;;;;13.78;79.11;100960.90;92695;1213;68707;-58
2021/07/22 03:00:49;;;;;;;8.00;5.10;;;;;;;13.78;79.04;100960.05;92674;1213;87084;-58
2021/07/22 03:02:59;;;;;;;8.30;5.60;;;;;;;13.81;79.14;100967.81;92695;1215;74305;-58
2021/07/22 03:05:09;;;;;;;5.90;4.90;;;;;;;13.86;79.12;100959.91;92691;1213;81809;-60
2021/07/22 03:07:17;;;;;;;6.60;5.00;;;;;;;13.89;79.19;100963.08;92712;1212;66963;-59
2021/07/22 03:09:28;;;;;;;6.30;4.80;;;;;;;13.98;79.26;100961.06;92697;1212;69999;-59
2021/07/22 03:11:35;;;;;;;7.90;5.30;;;;;;;13.99;79.25;100960.00;92715;1213;85995;-58
2021/07/22 03:13:46;;;;;;;8.40;5.20;;;;;;;14.01;79.38;100971.50;92669;1216;74651;-58
2021/07/22 03:15:53;;;;;;;6.10;4.90;;;;;;;14.05;79.50;100972.80;92700;1203;82543;-58
2021/07/22 03:18:01;;;;;;;7.30;4.80;;;;;;;14.13;79.50;100970.78;92666;1213;67700;-58
2021/07/22 03:20:12;;;;;;;9.60;5.70;;;;;;;14.23;79.79;100973.13;92703;1213;69937;-58
2021/07/22 03:22:20;;;;;;;7.50;4.90;;;;;;;14.34;79.75;100979.95;92705;1210;85212;-58
2021/07/22 03:24:27;;;;;;;7.80;5.00;;;;;;;14.44;79.48;100977.70;92696;1213;73500;-58
2021/07/22 03:26:35;;;;;;;7.20;5.10;;;;;;;14.54;79.68;100984.45;92661;1213;80153;-58
2021/07/22 03:28:43;;;;;;;6.80;5.30;;;;;;;14.60;79.62;100983.65;92689;1212;66921;-58
2021/07/22 03:30:50;;;;;;;7.40;4.50;;;;;;;14.71;79.70;100980.36;92655;1218;68060;-59
2021/07/22 03:33:01;;;;;;;7.40;5.40;;;;;;;14.78;79.61;100983.09;92677;1213;86839;-59
2021/07/22 03:35:12;;;;;;;7.00;5.00;;;;;;;14.87;79.83;100978.31;92686;1212;75544;-58
2021/07/22 03:37:19;;;;;;;6.50;5.00;;;;;;;14.92;79.70;100981.27;92705;1214;80840;-58
2021/07/22 03:39:30;;;;;;;8.80;5.10;;;;;;;15.02;79.58;100979.86;92676;1213;68772;-58
2021/07/22 03:41:38;;;;;;;9.40;5.60;;;;;;;15.10;79.68;100985.13;92697;1218;69163;-59
2021/07/22 03:43:45;;;;;;;8.70;5.50;;;;;;;15.20;79.63;100985.56;92674;1212;86544;-59
2021/07/22 03:46:00;;;;;;;8.70;5.70;;;;;;;15.25;79.52;100987.66;92692;1214;73893;-58
2021/07/22 03:48:08;;;;;;;8.00;5.80;;;;;;;15.32;79.57;100992.10;92648;1213;80465;-58
2021/07/22 03:50:19;;;;;;;8.50;5.50;;;;;;;15.40;79.65;100988.34;92700;1214;67627;-59
2021/07/22 03:52:27;;;;;;;9.40;6.00;;;;;;;15.46;79.62;100993.00;92706;1210;70017;-60
2021/07/22 03:54:34;;;;;;;8.30;6.10;;;;;;;15.56;79.44;100993.42;92720;1204;86517;-59
2021/07/22 03:56:42;;;;;;;11.60;8.00;;;;;;;15.56;79.43;100990.70;92691;1212;76418;-60
2021/07/22 03:58:53;;;;;;;8.20;6.50;;;;;;;15.60;79.34;101002.03;92669;1213;80103;-60
2021/07/22 04:01:00;;;;;;;9.00;5.70;;;;;;;15.63;79.30;100994.26;92676;1213;68451;-59
2021/07/22 04:03:08;;;;;;;7.80;5.70;;;;;;;15.66;79.38;101002.02;92703;1213;67829;-60
2021/07/22 04:05:16;;;;;;;9.30;6.10;;;;;;;15.72;79.28;100994.91;92689;1213;86533;-58
2021/07/22 04:07:23;;;;;;;8.00;5.70;;;;;;;15.77;79.20;100993.23;92727;1213;74597;-58
2021/07/22 04:09:31;;;;;;;7.40;5.60;;;;;;;15.82;79.37;101000.80;92670;1213;80708;-59
2021/07/22 04:11:40;;;;;;;6.70;5.20;;;;;;;15.88;79.21;100989.88;92673;1214;68739;-60
2021/07/22 04:13:48;;;;;;;10.80;6.10;;;;;;;15.90;79.06;100993.23;92686;1213;69403;-60
2021/07/22 04:15:55;;;;;;;7.40;5.30;;;;;;;15.99;78.99;100993.05;92674;1213;87526;-58
2021/07/22 04:18:03;;;;;;;7.40;6.00;;;;;;;16.07;79.15;100992.83;92717;1213;76624;-58
2021/07/22 04:20:13;;;;;;;8.40;5.80;;;;;;;16.13;79.16;100990.08;92650;1213;80843;-60
2021/07/22 04:22:21;;;;;;;8.00;5.90;;;;;;;16.16;79.12;100994.27;92727;1208;66325;-60
2021/07/22 04:24:28;;;;;;;9.70;5.70;;;;;;;16.18;78.92;100994.92;92693;1213;68961;-59
2021/07/22 04:26:36;;;;;;;7.90;4.80;;;;;;;16.24;78.83;100988.59;92677;1213;87558;-60
2021/07/22 04:28:44;;;;;;;7.40;5.70;;;;;;;16.29;78.87;100994.25;92681;1213;74158;-60
2021/07/22 04:30:55;;;;;;;8.80;6.10;;;;;;;16.35;78.94;100991.52;92687;1208;81957;-58
2021/07/22 04:33:05;;;;;;;8.20;6.10;;;;;;;16.43;79.00;100988.56;92688;1213;65754;-58
2021/07/22 04:35:15;;;;;;;6.90;5.60;;;;;;;16.49;79.02;100992.33;92722;1213;68967;-59
2021/07/22 04:37:25;;;;;;;7.20;5.70;;;;;;;16.52;78.93;100991.91;92722;1213;86428;-60
2021/07/22 04:39:33;;;;;;;10.10;5.50;;;;;;;16.58;78.97;100999.28;92703;1212;75251;-58
2021/07/22 04:41:41;;;;;;;8.00;5.60;;;;;;;16.65;78.91;100991.05;92659;1213;81419;-58
2021/07/22 04:43:51;;;;;;;8.70;5.40;;;;;;;16.73;78.99;100994.39;92668;1213;66440;-58
2021/07/22 04:46:01;;;;;;;8.10;5.20;;;;;;;16.83;78.96;101000.25;92687;1203;68034;-58
2021/07/22 04:48:11;;;;;;;6.90;5.10;;;;;;;16.92;78.74;101003.59;92677;1215;86669;-58
2021/07/22 04:50:19;;;;;;;7.40;5.10;;;;;;;17.03;78.79;100994.72;92682;1213;75726;-58
2021/07/22 04:52:29;;;;;;;7.40;5.20;;;;;;;17.13;78.48;101007.89;92655;1213;82366;-58
2021/07/22 04:54:37;;;;;;;6.30;5.20;;;;;;;17.21;78.39;100996.72;92686;1212;65775;-59
2021/07/22 04:56:45;;;;;;;8.10;5.40;;;;;;;17.28;78.39;101003.00;92713;1213;68080;-59
2021/07/22 04:58:52;;;;;;;6.90;5.30;;;;;;;17.40;78.30;100999.34;92674;1213;85542;-59
2021/07/22 05:01:00;;;;;;;6.40;4.80;;;;;;;17.44;78.05;100997.83;92664;1219;74709;-58
2021/07/22 05:03:08;;;;;;;5.90;4.90;;;;;;;17.51;77.83;100995.91;92675;1219;81328;-58
2021/07/22 05:05:16;;;;;;;6.70;5.40;;;;;;;17.60;77.77;100996.52;92666;1213;67142;-58
2021/07/22 05:07:26;;;;;;;7.70;5.20;;;;;;;17.70;77.75;100999.59;92713;1208;69268;-58
2021/07/22 05:09:34;;;;;;;6.70;5.00;;;;;;;17.72;77.60;100999.39;92663;1214;85490;-59
2021/07/22 05:11:41;;;;;;;6.30;4.60;;;;;;;17.71;77.37;100995.81;92685;1213;75179;-58
2021/07/22 05:13:49;;;;;;;6.40;4.50;;;;;;;17.81;77.36;100992.58;92713;1203;81577;-58
2021/07/22 05:15:56;;;;;;;6.70;4.50;;;;;;;17.99;76.97;100998.94;92657;1213;67355;-58
2021/07/22 05:18:04;;;;;;;6.90;4.50;;;;;;;18.09;76.72;100998.45;92712;1203;68766;-58
2021/07/22 05:20:15;;;;;;;6.10;4.60;;;;;;;18.12;76.58;100998.84;92668;1213;86895;-59
2021/07/22 05:22:23;;;;;;;6.80;4.30;;;;;;;18.18;76.67;100994.38;92708;1213;75091;-59
2021/07/22 05:24:34;;;;;;;7.50;4.60;;;;;;;18.43;76.47;100997.08;92678;1213;81555;-58
2021/07/22 05:26:44;;;;;;;4.70;4.10;;;;;;;18.66;76.21;100997.27;92650;1213;69628;-58
2021/07/22 05:28:52;;;;;;;7.60;5.00;;;;;;;18.79;75.92;101005.33;92706;1213;68259;-59
2021/07/22 05:31:06;;;;;;;7.20;4.30;;;;;;;19.03;75.89;101004.42;92669;1213;86784;-57
2021/07/22 05:33:14;;;;;;;5.60;3.80;;;;;;;19.19;75.36;101003.80;92717;1213;74829;-57
2021/07/22 05:35:22;;;;;;;6.20;4.30;;;;;;;19.53;75.41;100998.72;92669;1219;81390;-57
2021/07/22 05:37:31;;;;;;;8.00;5.00;;;;;;;20.19;74.16;101002.05;92685;1214;68924;-57
2021/07/22 05:39:41;;;;;;;7.70;4.40;;;;;;;20.35;73.34;101001.41;92720;1213;69248;-58
2021/07/22 05:41:49;;;;;;;7.80;4.30;;;;;;;20.32;73.14;100993.64;92707;1215;87181;-58
2021/07/22 05:43:56;;;;;;;5.90;4.70;;;;;;;20.65;72.12;101005.91;92675;1213;73554;-59
2021/07/22 05:46:04;;;;;;;6.10;4.10;;;;;;;20.52;72.26;101005.07;92690;1213;80716;-57
2021/07/22 05:48:11;;;;;;;6.90;4.40;;;;;;;20.59;71.86;101003.05;92708;1215;65975;-57
2021/07/22 05:50:19;;;;;;;6.30;4.00;;;;;;;20.78;71.95;101002.90;92726;1212;68379;-57
2021/07/22 05:52:31;;;;;;;5.90;4.10;;;;;;;20.87;71.16;101002.30;92703;1213;86547;-57
2021/07/22 05:54:42;;;;;;;5.60;4.00;;;;;;;21.10;71.24;100999.50;92728;1213;75598;-58
2021/07/22 05:56:49;;;;;;;6.20;3.80;;;;;;;21.24;70.47;101000.05;92705;1213;81717;-57
2021/07/22 05:58:57;;;;;;;5.30;3.90;;;;;;;21.46;70.51;101003.79;92662;1213;69449;-57
2021/07/22 06:01:07;;;;;;;5.20;3.90;;;;;;;21.35;70.01;101007.42;92712;1213;68450;-68
2021/07/22 06:03:15;;;;;;;7.50;4.00;;;;;;;21.30;69.11;101006.48;92731;1213;87799;-72
2021/07/22 06:05:23;;;;;;;6.40;4.10;;;;;;;21.21;69.33;101006.03;92738;1213;75785;-75
2021/07/22 06:07:30;;;;;;;5.00;3.80;;;;;;;21.35;68.89;101003.83;92695;1213;81718;-68
2021/07/22 06:09:41;;;;;;;5.60;3.60;;;;;;;21.32;68.52;101002.41;92685;1213;66537;-69
2021/07/22 06:11:49;;;;;;;4.50;3.40;;;;;;;21.36;68.49;100997.27;92710;1218;68302;-70
2021/07/22 06:13:57;;;;;;;5.70;3.80;;;;;;;21.36;68.28;101002.77;92731;1208;86510;-70
2021/07/22 06:16:08;;;;;;;6.80;3.70;;;;;;;21.30;67.79;101001.83;92722;1213;74712;-68
2021/07/22 06:18:16;;;;;;;5.50;3.50;;;;;;;21.24;68.00;100996.47;92688;1216;80990;-70
2021/07/22 06:20:24;;;;;;;6.90;3.80;;;;;;;21.35;67.66;100993.67;92697;1203;67866;-58
2021/07/22 06:22:31;;;;;;;5.90;3.30;;;;;;;21.52;68.10;101000.06;92664;1213;68009;-56
2021/07/22 06:24:39;;;;;;;6.10;3.60;;;;;;;21.65;67.65;101001.66;92689;1213;86319;-68
2021/07/22 06:26:46;;;;;;;5.70;3.40;;;;;;;21.61;66.88;101003.25;92683;1220;75186;-69
2021/07/22 06:28:54;;;;;;;5.60;3.60;;;;;;;21.65;66.97;101004.41;92681;1213;80405;-69
2021/07/22 06:31:02;;;;;;;4.40;3.30;;;;;;;21.78;66.96;101010.42;92698;1213;66862;-56
2021/07/22 06:33:09;;;;;;;7.40;3.90;;;;;;;21.86;66.81;100997.37;92703;1213;69068;-58
2021/07/22 06:35:17;;;;;;;3.70;3.10;;;;;;;22.03;66.43;100998.25;92716;1211;86373;-58
2021/07/22 06:37:25;;;;;;;4.60;3.10;;;;;;;22.34;66.47;101000.38;92720;1213;74799;-58
2021/07/22 06:39:35;;;;;;;5.00;3.20;;;;;;;22.39;65.39;100999.66;92665;1213;81885;-71
2021/07/22 06:41:42;;;;;;;4.30;3.30;;;;;;;22.43;65.29;100996.13;92662;1213;66650;-69
2021/07/22 06:43:50;;;;;;;6.40;3.60;;;;;;;22.59;65.13;100995.27;92672;1213;68255;-69
2021/07/22 06:45:58;;;;;;;6.20;3.10;;;;;;;22.73;64.40;101001.27;92661;1213;88289;-57
2021/07/22 06:48:07;;;;;;;6.90;3.20;;;;;;;22.78;63.70;101001.33;92701;1213;75496;-58
2021/07/22 06:50:15;;;;;;;3.70;2.60;;;;;;;22.77;63.15;100996.93;92708;1213;79839;-70
2021/07/22 06:52:23;;;;;;;4.00;2.80;;;;;;;22.91;62.74;101004.55;92652;1213;66910;-71
2021/07/22 06:54:30;;;;;;;4.90;2.60;;;;;;;23.01;62.17;101000.27;92709;1207;70513;-58
2021/07/22 06:56:38;;;;;;;4.40;2.50;;;;;;;23.01;61.15;100995.59;92672;1213;86209;-58
2021/07/22 06:58:46;;;;;;;5.70;3.00;;;;;;;22.82;60.70;101005.26;92671;1212;74825;-58
2021/07/22 07:00:54;;;;;;;3.60;2.90;;;;;;;22.87;60.55;100994.30;92669;1213;81541;-71
2021/07/22 07:03:04;;;;;;;5.70;3.20;;;;;;;23.08;60.57;100995.38;92674;1213;66174;-70
2021/07/22 07:05:14;;;;;;;4.80;2.80;;;;;;;23.29;60.75;100998.11;92678;1214;69396;-70
2021/07/22 07:07:24;;;;;;;5.20;2.60;;;;;;;23.44;60.51;101003.00;92703;1208;87091;-69
2021/07/22 07:09:31;;;;;;;2.50;2.20;;;;;;;23.46;59.25;100995.30;92684;1213;76557;-70
2021/07/22 07:11:42;;;;;;;6.90;2.70;;;;;;;23.40;59.00;101002.68;92687;1219;81322;-69
2021/07/22 07:13:49;;;;;;;3.60;2.00;;;;;;;23.42;59.01;101002.44;92720;1213;66535;-70
2021/07/22 07:15:57;;;;;;;4.40;2.30;;;;;;;23.51;59.01;100992.62;92733;1206;70581;-58
2021/07/22 07:18:07;;;;;;;6.70;2.80;;;;;;;23.47;58.61;100991.45;92713;1213;87302;-58
2021/07/22 07:20:16;;;;;;;5.40;2.70;;;;;;;23.48;57.96;100998.66;92717;1213;74070;-69
2021/07/22 07:22:23;;;;;;;8.00;2.40;;;;;;;23.67;58.25;100996.35;92676;1213;81743;-69
2021/07/22 07:24:31;;;;;;;4.40;2.50;;;;;;;23.80;57.43;100999.52;92702;1219;66850;-58
2021/07/22 07:26:39;;;;;;;5.40;2.70;;;;;;;23.95;57.77;100994.13;92695;1213;70003;-57
2021/07/22 07:28:46;;;;;;;6.00;3.00;;;;;;;24.21;58.22;100988.84;92711;1213;85956;-58
2021/07/22 07:30:57;;;;;;;5.40;2.30;;;;;;;24.58;57.73;100997.95;92704;1208;75287;-58
2021/07/22 07:33:05;;;;;;;3.50;2.30;;;;;;;24.51;56.09;100997.34;92682;1215;80121;-58
2021/07/22 07:35:15;;;;;;;2.90;2.20;;;;;;;24.39;55.57;100996.72;92697;1213;65209;-65
2021/07/22 07:37:22;;;;;;;3.00;2.00;;;;;;;24.27;56.64;101004.36;92720;1213;67850;-66
2021/07/22 07:39:31;;;;;;;6.70;2.40;;;;;;;24.24;56.00;100993.84;92707;1213;86768;-66
2021/07/22 07:41:39;;;;;;;4.30;2.50;;;;;;;24.35;56.20;100996.41;92691;1214;73611;-65
2021/07/22 07:43:46;;;;;;;4.40;2.30;;;;;;;24.44;55.41;100999.52;92686;1214;80088;-65
2021/07/22 07:45:55;;;;;;;4.70;2.20;;;;;;;24.47;56.22;100996.22;92713;1215;65889;-64
2021/07/22 07:48:02;;;;;;;4.70;2.40;;;;;;;24.68;56.09;101002.69;92684;1213;67739;-64
2021/07/22 07:50:12;;;;;;;3.90;2.10;;;;;;;24.79;55.71;100998.89;92694;1213;87761;-65
2021/07/22 07:52:19;;;;;;;4.70;2.50;;;;;;;24.79;54.95;100999.75;92721;1212;74226;-64
2021/07/22 07:54:30;;;;;;;5.20;2.30;;;;;;;24.79;54.71;100994.23;92681;1213;81262;-65
2021/07/22 07:56:40;;;;;;;5.00;2.20;;;;;;;25.10;54.66;101000.73;92679;1214;65850;-66
2021/07/22 07:58:49;;;;;;;3.60;2.50;;;;;;;25.03;53.75;100995.44;92723;1213;68323;-64
2021/07/22 08:00:57;;;;;;;3.50;1.80;;;;;;;24.94;54.05;101005.34;92685;1213;86367;-64
2021/07/22 08:03:06;;;;;;;3.00;2.10;;;;;;;25.11;53.58;100999.61;92701;1211;75199;-63
2021/07/22 08:05:14;;;;;;;5.20;2.30;;;;;;;25.48;54.14;101002.27;92679;1213;81343;-63
2021/07/22 08:07:22;;;;;;;4.30;1.90;;;;;;;25.72;54.71;100995.94;92732;1203;66522;-65
2021/07/22 08:09:32;;;;;;;3.10;1.80;;;;;;;26.05;53.53;100996.52;92710;1213;69358;-67
2021/07/22 08:11:40;;;;;;;3.10;2.10;;;;;;;26.26;53.77;100990.71;92686;1213;87006;-66
2021/07/22 08:13:48;;;;;;;6.00;2.30;;;;;;;26.59;52.88;100991.23;92711;1213;75728;-64
2021/07/22 08:15:58;;;;;;;4.60;2.30;;;;;;;26.61;51.25;100991.77;92690;1218;81233;-66
2021/07/22 08:18:09;;;;;;;3.80;2.10;;;;;;;26.18;49.63;100991.27;92683;1210;65560;-66
2021/07/22 08:20:17;;;;;;;5.10;2.40;;;;;;;25.90;50.44;100994.59;92711;1213;69748;-66
2021/07/22 08:22:25;;;;;;;3.50;1.80;;;;;;;25.70;49.27;100998.16;92691;1208;87463;-64
2021/07/22 08:24:33;;;;;;;2.90;1.90;;;;;;;25.81;51.49;101001.77;92697;1213;75221;-65
2021/07/22 08:26:41;;;;;;;3.20;1.90;;;;;;;26.09;51.45;100998.47;92688;1212;82007;-65
2021/07/22 08:28:49;;;;;;;5.80;1.90;;;;;;;26.12;50.17;100994.31;92698;1213;66703;-65
2021/07/22 08:30:57;;;;;;;3.90;1.80;;;;;;;26.05;49.44;100997.34;92732;1203;68540;-64
2021/07/22 08:33:04;;;;;;;3.70;2.00;;;;;;;26.13;49.62;100994.05;92689;1218;86492;-65
2021/07/22 08:35:14;;;;;;;4.80;2.10;;;;;;;26.16;49.09;100992.66;92682;1213;74690;-64
2021/07/22 08:37:24;;;;;;;3.50;1.90;;;;;;;25.99;48.71;100995.68;92708;1213;81687;-65
2021/07/22 08:39:40;;;;;;;3.30;2.10;;;;;;;25.72;48.74;100995.11;92704;1213;67423;-65
2021/07/22 08:41:49;;;;;;;4.00;2.00;;;;;;;26.05;49.96;100996.52;92726;1212;69347;-65
2021/07/22 08:44:02;;;;;;;3.60;2.30;;;;;;;26.29;49.22;100983.78;92687;1213;87330;-65
2021/07/22 08:46:11;;;;;;;4.10;2.00;;;;;;;26.53;49.71;100976.56;92721;1214;75490;-67
2021/07/22 08:48:19;;;;;;;3.00;2.00;;;;;;;27.02;50.34;100978.63;92747;1211;82224;-67
2021/07/22 08:50:27;;;;;;;3.20;2.10;;;;;;;27.43;49.73;100980.11;92699;1203;68077;-66
2021/07/22 08:52:35;;;;;;;4.10;2.20;;;;;;;27.84;48.41;100975.11;92759;1213;68130;-66
2021/07/22 08:54:43;;;;;;;6.70;2.30;;;;;;;28.34;48.48;100963.58;92706;1213;86905;-65
2021/07/22 08:56:51;;;;;;;4.00;1.90;;;;;;;28.76;47.38;100987.08;92687;1213;75746;-65
2021/07/22 08:59:01;;;;;;;3.80;1.90;;;;;;;28.76;44.99;100975.95;92667;1213;80886;-66
2021/07/22 09:01:13;;;;;;;3.60;2.20;;;;;;;29.27;45.68;100976.16;92735;1213;67890;-64
2021/07/22 09:03:21;;;;;;;3.00;1.90;;;;;;;30.00;44.74;100973.65;92728;1213;68969;-63
2021/07/22 09:05:32;;;;;;;3.10;1.90;;;;;;;30.24;44.50;100972.38;92704;1213;86893;-67
2021/07/22 09:07:40;;;;;;;2.40;1.70;;;;;;;30.12;41.24;100971.23;92722;1213;74413;-67
2021/07/22 09:10:01;;;;;;;4.00;1.90;;;;;;;29.43;41.60;100972.85;92688;1213;81384;-66
2021/07/22 09:12:10;;;;;;;2.70;1.90;;;;;;;29.23;41.70;100976.75;92711;1213;68140;-66
2021/07/22 09:14:18;;;;;;;6.00;1.70;;;;;;;28.80;40.53;100972.27;92716;1213;69614;-66
2021/07/22 09:16:39;;;;;;;2.60;1.70;;;;;;;28.77;41.24;100977.59;92715;1213;86242;-63
2021/07/22 09:18:49;;;;;;;2.10;1.40;;;;;;;28.74;42.05;100972.62;92753;1211;75489;-63
2021/07/22 09:20:58;;;;;;;4.00;2.00;;;;;;;28.82;42.67;100974.74;92723;1213;82190;-66
2021/07/22 09:23:17;;;;;;;2.90;1.70;;;;;;;29.18;43.37;100981.52;92707;1213;68143;-67
2021/07/22 09:25:42;;;;;;;4.40;1.60;;;;;;;28.91;41.07;100975.75;92702;1213;69909;-66
2021/07/22 09:27:50;;;;;;;3.00;1.50;;;;;;;28.58;39.85;100975.55;92708;1213;87565;-64
2021/07/22 09:30:02;;;;;;;3.10;1.70;;;;;;;28.20;40.29;100984.84;92698;1208;73770;-64
2021/07/22 09:32:14;;;;;;;2.90;1.90;;;;;;;28.15;42.16;100978.49;92712;1213;82427;-66
2021/07/22 09:34:29;;;;;;;2.10;1.70;;;;;;;28.34;42.01;100974.70;92693;1219;67060;-66
2021/07/22 09:36:37;;;;;;;2.30;1.40;;;;;;;28.74;42.39;100969.83;92713;1212;68369;-65
2021/07/22 09:38:45;;;;;;;4.00;2.10;;;;;;;29.10;43.36;100971.89;92682;1213;87351;-63
2021/07/22 09:40:53;;;;;;;3.30;1.60;;;;;;;29.23;42.93;100970.34;92722;1213;75249;-63
2021/07/22 09:43:01;;;;;;;3.50;1.70;;;;;;;28.96;42.00;100970.95;92684;1214;82057;-62
2021/07/22 09:45:23;;;;;;;2.00;1.50;;;;;;;28.48;40.34;100964.55;92710;1203;67104;-63
2021/07/22 09:47:32;;;;;;;2.70;1.70;;;;;;;27.88;40.91;100965.09;92706;1215;68774;-62
2021/07/22 09:49:42;;;;;;;2.60;1.80;;;;;;;27.67;41.08;100967.17;92720;1213;87368;-62
2021/07/22 09:51:49;;;;;;;2.30;1.80;;;;;;;27.64;42.17;100961.36;92731;1213;74901;-63
2021/07/22 09:54:11;;;;;;;2.30;1.80;;;;;;;27.59;42.11;100956.69;92684;1213;81057;-64
2021/07/22 09:56:38;;;;;;;3.40;2.10;;;;;;;27.57;42.42;100958.09;92722;1213;65551;-63
2021/07/22 09:58:49;;;;;;;2.10;1.50;;;;;;;27.27;42.47;100961.87;92742;1212;68283;-62
2021/07/22 10:01:01;;;;;;;2.90;1.40;;;;;;;27.14;42.07;100957.75;92701;1213;86287;-62
2021/07/22 10:03:14;;;;;;;2.10;1.70;;;;;;;27.11;41.86;100961.13;92733;1208;75405;-63
2021/07/22 10:05:25;;;;;;;3.10;1.70;;;;;;;26.84;42.17;100955.13;92717;1207;82088;-64
2021/07/22 10:07:40;;;;;;;3.20;1.90;;;;;;;26.97;42.63;100960.08;92720;1213;67131;-64
2021/07/22 10:09:54;;;;;;;4.00;1.60;;;;;;;27.18;42.59;100955.25;92735;1203;69540;-63